Time;durP1;ratioP1;P1;durP2;ratioP2;P2;SDS_P1;SDS_P2;PMS_P1;PMS_P2;Temp;Humidity;BMP_temperature;BMP_pressure;BME280_temperature;BME280_humidity;BME280_pressure;Samples;Min_cycle;Max_cycle;Signal;HPM_P1;HPM_P2
2021/12/14 00:00:30;;;;;;;354.15;95.38;;;;;;;3.32;99.07;100058.00;340905;28;1330;-72
2021/12/14 00:00:47;;;;;;;357.73;98.43;;;;;;;3.31;99.75;100061.47;344925;28;1289;-72
2021/12/14 00:01:09;;;;;;;356.15;96.93;;;;;;;3.29;99.28;100052.84;339786;29;950;-72
2021/12/14 00:01:34;;;;;;;356.90;98.00;;;;;;;3.31;99.21;100057.16;339131;29;1538;-72
2021/12/14 00:01:47;;;;;;;354.08;94.43;;;;;;;3.32;99.38;100063.19;341090;29;983;-72
2021/12/14 00:01:57;;;;;;;355.42;95.60;;;;;;;3.32;99.45;100055.44;339729;29;1080;-72
2021/12/14 00:02:08;;;;;;;356.67;96.27;;;;;;;3.34;99.60;100056.28;339208;29;1544;-72
2021/12/14 00:02:20;;;;;;;356.20;96.17;;;;;;;3.36;99.56;100062.31;341575;28;1445;-72
2021/12/14 00:02:30;;;;;;;357.23;97.22;;;;;;;3.36;99.11;100059.72;342743;28;1265;-72
2021/12/14 00:02:41;;;;;;;356.77;98.27;;;;;;;3.37;99.36;100061.44;342461;28;893;-72
2021/12/14 00:02:52;;;;;;;356.33;97.38;;;;;;;3.38;99.25;100064.88;339064;29;1658;-72
2021/12/14 00:03:02;;;;;;;355.90;97.13;;;;;;;3.36;99.73;100057.13;340802;29;1531;-72
2021/12/14 00:03:14;;;;;;;357.05;97.90;;;;;;;3.35;99.44;100060.59;340275;29;1763;-72
2021/12/14 00:03:26;;;;;;;357.65;100.05;;;;;;;3.33;99.17;100060.59;345039;28;1500;-72
2021/12/14 00:03:39;;;;;;;357.73;99.57;;;;;;;3.33;99.09;100064.91;340094;29;1495;-72
2021/12/14 00:03:52;;;;;;;357.35;97.85;;;;;;;3.33;99.10;100059.72;337651;29;1557;-72
2021/12/14 00:04:07;;;;;;;355.65;96.63;;;;;;;3.34;99.67;100061.44;340720;28;1494;-72
2021/12/14 00:04:20;;;;;;;357.73;99.95;;;;;;;3.32;99.18;100058.00;342233;28;1473;-72
2021/12/14 00:04:33;;;;;;;358.02;99.25;;;;;;;3.33;99.49;100064.91;342456;28;1558;-72
2021/12/14 00:04:43;;;;;;;355.65;96.18;;;;;;;3.33;99.19;100059.72;341237;29;929;-72
2021/12/14 00:04:55;;;;;;;353.43;93.67;;;;;;;3.35;99.44;100063.19;341040;29;1428;-72
2021/12/14 00:05:06;;;;;;;354.35;95.85;;;;;;;3.35;99.19;100063.19;338404;29;1460;-72
2021/12/14 00:05:18;;;;;;;355.35;97.13;;;;;;;3.34;99.35;100066.63;341031;29;1468;-72
2021/12/14 00:05:29;;;;;;;356.40;98.45;;;;;;;3.34;99.09;100062.31;339726;29;928;-72
2021/12/14 00:05:39;;;;;;;356.55;98.95;;;;;;;3.36;99.60;100067.47;342262;28;1615;-72
2021/12/14 00:05:50;;;;;;;355.77;98.17;;;;;;;3.39;99.18;100064.03;342321;28;1362;-71
2021/12/14 00:06:01;;;;;;;354.83;96.82;;;;;;;3.38;99.42;100062.31;342328;28;1491;-71
2021/12/14 00:06:12;;;;;;;355.27;98.37;;;;;;;3.37;99.71;100063.16;343777;28;1151;-71
2021/12/14 00:06:23;;;;;;;355.98;99.38;;;;;;;3.36;99.46;100064.91;345151;28;1495;-71
2021/12/14 00:06:33;;;;;;;355.85;98.30;;;;;;;3.33;99.52;100058.00;340293;29;1385;-71
2021/12/14 00:06:44;;;;;;;355.00;97.23;;;;;;;3.33;98.87;100064.91;341161;29;810;-71
2021/12/14 00:06:55;;;;;;;354.65;96.82;;;;;;;3.33;98.81;100064.91;340917;28;1496;-71
2021/12/14 00:07:08;;;;;;;356.60;100.13;;;;;;;3.36;99.38;100064.91;339586;28;1441;-71
2021/12/14 00:07:19;;;;;;;356.58;100.70;;;;;;;3.34;98.98;100071.81;342275;28;1566;-71
2021/12/14 00:07:30;;;;;;;356.97;99.50;;;;;;;3.34;98.96;100061.44;340976;28;1338;-71
2021/12/14 00:07:41;;;;;;;357.45;98.57;;;;;;;3.31;99.24;100061.47;341076;29;1607;-71
2021/12/14 00:07:53;;;;;;;357.35;97.72;;;;;;;3.30;99.11;100065.78;342385;28;1529;-71
2021/12/14 00:08:04;;;;;;;355.70;98.32;;;;;;;3.30;98.70;100064.91;343702;28;1479;-71
2021/12/14 00:08:15;;;;;;;356.05;99.22;;;;;;;3.30;98.72;100057.16;343185;28;837;-71
2021/12/14 00:08:30;;;;;;;355.83;98.15;;;;;;;3.28;99.06;100064.06;340903;28;1507;-71
2021/12/14 00:08:52;;;;;;;355.88;95.88;;;;;;;3.30;99.16;100060.59;341829;28;1414;-71
2021/12/14 00:09:04;;;;;;;353.76;93.78;;;;;;;3.33;98.97;100059.72;343533;28;1364;-71
2021/12/14 00:09:24;;;;;;;353.02;95.05;;;;;;;3.34;99.41;100053.69;341483;28;1332;-71
2021/12/14 00:09:36;;;;;;;355.98;99.50;;;;;;;3.29;99.23;100063.19;340768;28;1449;-71
2021/12/14 00:09:47;;;;;;;355.80;97.28;;;;;;;3.28;99.22;100056.31;339827;29;1488;-71
2021/12/14 00:10:11;;;;;;;354.70;95.53;;;;;;;3.27;99.24;100063.19;340945;29;1233;-71
2021/12/14 00:11:30;;;;;;;355.10;96.88;;;;;;;3.24;99.00;100062.34;340942;28;1498;-71
2021/12/14 00:12:42;;;;;;;354.25;95.95;;;;;;;3.19;99.28;100061.50;341670;28;1345;-71
2021/12/14 00:12:59;;;;;;;356.00;94.95;;;;;;;3.23;99.70;100058.03;341908;28;1396;-71
2021/12/14 00:13:24;;;;;;;355.60;97.32;;;;;;;3.24;99.33;100064.94;340418;29;1530;-71
2021/12/14 00:13:58;;;;;;;358.25;96.72;;;;;;;3.23;99.38;100063.22;341618;28;1546;-72
2021/12/14 00:14:27;;;;;;;355.02;95.55;;;;;;;3.22;99.62;100058.91;342292;28;1479;-71
2021/12/14 00:15:03;;;;;;;353.60;94.72;;;;;;;3.19;99.25;100062.38;341066;29;947;-71
2021/12/14 00:15:14;;;;;;;352.38;93.97;;;;;;;3.21;99.24;100065.81;338947;29;894;-71
2021/12/14 00:15:28;;;;;;;354.35;95.45;;;;;;;3.23;98.96;100068.38;342308;28;1459;-72
2021/12/14 00:15:38;;;;;;;356.05;96.45;;;;;;;3.23;99.12;100063.22;339706;29;1365;-72
2021/12/14 00:15:49;;;;;;;355.43;95.53;;;;;;;3.25;99.62;100066.66;341431;28;1373;-72
2021/12/14 00:15:59;;;;;;;355.90;96.63;;;;;;;3.24;99.64;100064.94;342317;28;1450;-72
2021/12/14 00:16:13;;;;;;;354.50;96.23;;;;;;;3.25;98.97;100058.91;341374;28;1085;-72
2021/12/14 00:16:24;;;;;;;355.42;97.40;;;;;;;3.24;99.54;100064.94;343229;28;1480;-72
2021/12/14 00:16:34;;;;;;;356.55;95.75;;;;;;;3.25;99.24;100061.50;342291;28;1550;-72
2021/12/14 00:16:46;;;;;;;356.37;94.37;;;;;;;3.23;99.66;100063.22;342555;28;984;-72
2021/12/14 00:16:57;;;;;;;355.42;95.15;;;;;;;3.22;99.45;100064.94;342340;28;1190;-72
2021/12/14 00:17:17;;;;;;;356.13;96.80;;;;;;;3.23;99.80;100063.22;338357;29;1358;-72
2021/12/14 00:17:39;;;;;;;356.00;96.32;;;;;;;3.19;99.79;100061.50;341012;29;1003;-72
2021/12/14 00:17:55;;;;;;;354.58;95.20;;;;;;;3.19;99.49;100071.84;340913;28;1657;-72
2021/12/14 00:18:07;;;;;;;355.90;97.88;;;;;;;3.20;99.12;100063.22;341104;28;1487;-72
2021/12/14 00:18:18;;;;;;;356.17;96.95;;;;;;;3.20;99.55;100063.22;340358;28;1378;-72
2021/12/14 00:18:29;;;;;;;356.53;95.07;;;;;;;3.21;99.20;100065.81;343896;28;865;-72
2021/12/14 00:18:40;;;;;;;354.43;93.40;;;;;;;3.21;99.28;100065.81;343248;28;1444;-72
2021/12/14 00:18:50;;;;;;;355.10;94.05;;;;;;;3.22;100.00;100061.50;341747;28;1483;-72
2021/12/14 00:19:01;;;;;;;355.60;95.43;;;;;;;3.23;99.40;100060.63;341194;29;834;-72
2021/12/14 00:19:12;;;;;;;357.42;96.22;;;;;;;3.24;99.46;100060.63;339686;29;1608;-72
2021/12/14 00:19:23;;;;;;;356.70;95.37;;;;;;;3.25;99.46;100066.66;342248;28;1396;-72
2021/12/14 00:19:34;;;;;;;356.55;95.97;;;;;;;3.24;99.40;100063.22;342233;28;1472;-72
2021/12/14 00:19:45;;;;;;;356.85;97.45;;;;;;;3.24;99.57;100062.34;339771;28;1279;-72
2021/12/14 00:19:58;;;;;;;358.93;98.33;;;;;;;3.25;99.54;100067.53;338026;29;1528;-72
2021/12/14 00:20:24;;;;;;;356.80;95.90;;;;;;;3.27;99.66;100064.94;339785;29;1535;-72
2021/12/14 00:20:40;;;;;;;356.30;94.70;;;;;;;3.23;99.21;100064.06;340944;28;1495;-72
2021/12/14 00:20:59;;;;;;;355.45;94.43;;;;;;;3.22;99.42;100066.66;340439;28;1727;-72
2021/12/14 00:21:20;;;;;;;354.80;93.63;;;;;;;3.23;99.34;100065.81;339532;29;1406;-72
2021/12/14 00:21:31;;;;;;;356.25;95.72;;;;;;;3.24;99.37;100064.94;339539;29;1164;-72
2021/12/14 00:21:47;;;;;;;358.05;96.32;;;;;;;3.25;99.39;100066.66;340747;29;1508;-72
2021/12/14 00:22:05;;;;;;;358.10;96.13;;;;;;;3.25;99.09;100064.06;339595;29;1122;-72
2021/12/14 00:22:21;;;;;;;355.10;95.38;;;;;;;3.23;99.02;100058.91;339810;29;885;-72
2021/12/14 00:24:05;;;;;;;356.35;95.95;;;;;;;3.24;99.01;100072.69;342303;28;979;-72
2021/12/14 00:24:09;;;;;;;356.13;98.18;;;;;;;3.24;99.09;100070.13;339742;29;703;-72
2021/12/14 00:24:22;;;;;;;355.63;95.43;;;;;;;3.27;99.64;100070.97;338775;29;1284;-72
2021/12/14 00:24:33;;;;;;;356.70;95.78;;;;;;;3.27;99.47;100070.09;338539;29;842;-72
2021/12/14 00:24:43;;;;;;;358.85;98.22;;;;;;;3.28;99.75;100067.50;342100;28;1511;-72
2021/12/14 00:24:54;;;;;;;357.20;97.07;;;;;;;3.29;99.20;100070.94;342267;28;1523;-72
2021/12/14 00:25:05;;;;;;;357.28;98.90;;;;;;;3.31;99.55;100069.22;342552;28;921;-72
2021/12/14 00:25:15;;;;;;;357.40;99.10;;;;;;;3.31;99.64;100066.63;340832;29;1153;-72
2021/12/14 00:25:41;;;;;;;358.70;99.30;;;;;;;3.33;99.05;100067.50;341761;28;1476;-72
2021/12/14 00:25:52;;;;;;;355.58;96.57;;;;;;;3.31;99.15;100074.41;342351;28;1364;-71
2021/12/14 00:26:03;;;;;;;355.50;97.70;;;;;;;3.29;99.18;100070.94;341113;29;928;-71
2021/12/14 00:26:13;;;;;;;357.07;98.57;;;;;;;3.28;98.85;100072.69;339749;29;1615;-71
2021/12/14 00:26:24;;;;;;;357.27;97.75;;;;;;;3.28;98.83;100069.25;338365;29;1465;-71
2021/12/14 00:26:56;;;;;;;356.20;94.97;;;;;;;3.30;99.18;100075.25;342402;28;1713;-71
2021/12/14 00:27:06;;;;;;;355.27;94.72;;;;;;;3.26;99.39;100068.38;340765;28;1600;-71
2021/12/14 00:27:18;;;;;;;355.43;95.17;;;;;;;3.27;98.84;100070.09;342488;28;873;-71
2021/12/14 00:27:29;;;;;;;356.73;97.47;;;;;;;3.26;99.24;100069.25;340820;28;1530;-71
2021/12/14 00:27:39;;;;;;;357.35;100.80;;;;;;;3.26;99.04;100073.56;338935;29;1484;-71
2021/12/14 00:27:49;;;;;;;357.73;101.47;;;;;;;3.25;99.33;100075.28;342760;28;865;-71
2021/12/14 00:28:03;;;;;;;357.48;100.55;;;;;;;3.25;99.07;100066.66;340968;28;1658;-71
2021/12/14 00:28:19;;;;;;;357.55;99.43;;;;;;;3.24;99.44;100073.56;342076;28;1494;-71
2021/12/14 00:28:31;;;;;;;357.05;98.95;;;;;;;3.21;99.24;100075.28;339625;29;1433;-71
2021/12/14 00:28:41;;;;;;;357.58;98.24;;;;;;;3.20;98.73;100073.56;338175;29;1402;-71
2021/12/14 00:28:52;;;;;;;359.37;98.70;;;;;;;3.20;99.03;100073.56;341098;29;1197;-71
2021/12/14 00:29:03;;;;;;;357.88;96.82;;;;;;;3.20;98.98;100068.41;341088;28;1574;-71
2021/12/14 00:29:19;;;;;;;355.75;96.10;;;;;;;3.20;99.24;100073.56;341665;28;1542;-71
2021/12/14 00:29:35;;;;;;;354.90;95.10;;;;;;;3.24;99.38;100077.88;342178;28;1475;-71
2021/12/14 00:29:47;;;;;;;356.23;94.38;;;;;;;3.27;99.24;100075.28;342343;28;1530;-71
2021/12/14 00:29:59;;;;;;;355.75;94.45;;;;;;;3.26;99.42;100074.41;340327;29;1464;-71
2021/12/14 00:30:11;;;;;;;354.60;95.90;;;;;;;3.27;99.12;100070.09;339622;29;1431;-71
2021/12/14 00:30:21;;;;;;;355.23;96.82;;;;;;;3.27;99.01;100075.28;341052;29;845;-71
2021/12/14 00:30:33;;;;;;;356.13;97.90;;;;;;;3.27;99.28;100073.53;339621;29;1470;-71
2021/12/14 00:30:44;;;;;;;354.95;96.70;;;;;;;3.30;99.02;100077.84;340481;29;1097;-71
2021/12/14 00:30:56;;;;;;;355.55;97.55;;;;;;;3.28;99.00;100077.00;340711;29;2191;-71
2021/12/14 00:31:10;;;;;;;356.90;98.18;;;;;;;3.29;99.17;100078.72;341191;29;1119;-71
2021/12/14 00:31:20;;;;;;;357.73;99.70;;;;;;;3.29;99.29;100076.13;342491;28;953;-71
2021/12/14 00:31:32;;;;;;;356.23;98.87;;;;;;;3.29;99.38;100077.00;339753;29;1544;-71
2021/12/14 00:31:42;;;;;;;356.00;98.93;;;;;;;3.31;98.83;100082.16;338843;28;1520;-71
2021/12/14 00:31:54;;;;;;;357.30;99.43;;;;;;;3.32;99.25;100076.13;339886;29;853;-71
2021/12/14 00:32:08;;;;;;;358.23;99.10;;;;;;;3.33;98.71;100083.88;340227;28;1256;-71
2021/12/14 00:32:20;;;;;;;357.02;97.32;;;;;;;3.31;98.83;100079.56;341325;29;1252;-71
2021/12/14 00:32:33;;;;;;;357.73;99.13;;;;;;;3.31;98.90;100076.97;341644;28;1475;-71
2021/12/14 00:32:44;;;;;;;355.95;97.20;;;;;;;3.29;99.17;100078.72;341268;28;1437;-71
2021/12/14 00:32:54;;;;;;;355.97;96.27;;;;;;;3.28;99.33;100077.00;341316;29;2092;-71
2021/12/14 00:33:11;;;;;;;356.08;97.03;;;;;;;3.27;99.38;100076.13;341223;28;1557;-71
2021/12/14 00:33:23;;;;;;;356.85;98.45;;;;;;;3.29;99.11;100078.72;342744;28;1025;-71
2021/12/14 00:33:34;;;;;;;357.45;98.40;;;;;;;3.28;99.01;100071.81;342561;28;988;-71
2021/12/14 00:33:56;;;;;;;356.75;98.43;;;;;;;3.31;99.24;100074.41;342890;28;1375;-71
2021/12/14 00:34:07;;;;;;;355.65;98.85;;;;;;;3.30;99.05;100080.44;342734;28;850;-71
2021/12/14 00:34:24;;;;;;;356.55;99.70;;;;;;;3.31;99.25;100076.97;340058;29;1365;-71
2021/12/14 00:34:41;;;;;;;356.27;97.85;;;;;;;3.31;98.90;100072.66;342576;28;1420;-71
2021/12/14 00:34:53;;;;;;;357.23;97.85;;;;;;;3.30;98.99;100078.72;341467;29;1000;-71
2021/12/14 00:35:10;;;;;;;358.05;100.30;;;;;;;3.28;98.56;100074.41;342629;28;1467;-71
2021/12/14 00:35:21;;;;;;;355.70;97.90;;;;;;;3.28;99.07;100082.16;340826;28;1614;-71
2021/12/14 00:35:31;;;;;;;355.20;96.38;;;;;;;3.27;99.05;100080.44;340011;28;1436;-71
2021/12/14 00:35:42;;;;;;;354.00;95.17;;;;;;;3.27;98.63;100070.09;341476;28;1540;-71
2021/12/14 00:35:52;;;;;;;353.85;95.65;;;;;;;3.26;98.59;100077.00;344142;28;1204;-71
2021/12/14 00:36:05;;;;;;;354.73;97.13;;;;;;;3.27;98.78;100075.28;345263;28;1502;-71
2021/12/14 00:36:15;;;;;;;355.70;98.03;;;;;;;3.28;98.89;100079.59;342513;28;1494;-71
2021/12/14 00:36:25;;;;;;;356.57;98.57;;;;;;;3.28;98.78;100077.00;341489;29;921;-71
2021/12/14 00:36:36;;;;;;;356.13;98.47;;;;;;;3.27;98.72;100080.44;340012;29;1203;-71
2021/12/14 00:36:46;;;;;;;357.02;99.65;;;;;;;3.24;98.99;100078.72;340032;29;1440;-71
2021/12/14 00:36:57;;;;;;;357.27;100.22;;;;;;;3.21;98.60;100075.28;339937;29;1441;-71
2021/12/14 00:37:19;;;;;;;358.53;100.63;;;;;;;3.16;98.63;100077.03;342558;28;1182;-71
2021/12/14 00:37:32;;;;;;;355.45;95.38;;;;;;;3.15;98.43;100076.16;342239;28;1459;-71
2021/12/14 00:37:45;;;;;;;354.83;95.55;;;;;;;3.17;98.78;100082.19;342704;28;1538;-71
2021/12/14 00:37:58;;;;;;;357.45;99.10;;;;;;;3.17;98.71;100086.50;341038;29;1987;-71
2021/12/14 00:38:08;;;;;;;359.30;100.13;;;;;;;3.16;98.84;100079.63;341861;28;1760;-71
2021/12/14 00:38:21;;;;;;;357.98;98.82;;;;;;;3.17;98.45;100078.75;341162;29;1704;-71
2021/12/14 00:38:34;;;;;;;356.75;94.75;;;;;;;3.18;98.85;100080.47;338124;29;1524;-71
2021/12/14 00:38:45;;;;;;;358.40;96.30;;;;;;;3.17;99.03;100079.63;339282;29;1496;-71
2021/12/14 00:38:57;;;;;;;358.55;97.78;;;;;;;3.19;98.95;100083.06;340165;29;1160;-71
2021/12/14 00:39:08;;;;;;;357.85;99.70;;;;;;;3.19;99.07;100087.38;341495;29;834;-71
2021/12/14 00:39:18;;;;;;;356.88;98.38;;;;;;;3.17;99.08;100078.75;342709;28;1732;-71
2021/12/14 00:39:29;;;;;;;357.23;98.00;;;;;;;3.18;99.10;100088.22;341059;29;1393;-71
2021/12/14 00:39:40;;;;;;;357.27;96.67;;;;;;;3.18;99.19;100081.34;340119;29;783;-71
2021/12/14 00:39:51;;;;;;;357.85;97.30;;;;;;;3.18;98.90;100081.34;341304;28;1481;-71
2021/12/14 00:40:07;;;;;;;357.35;97.00;;;;;;;3.19;99.01;100087.38;339405;29;1494;-71
2021/12/14 00:40:23;;;;;;;356.98;96.25;;;;;;;3.16;98.80;100087.38;339854;28;1464;-71
2021/12/14 00:40:37;;;;;;;355.58;94.06;;;;;;;3.16;99.06;100082.22;338478;29;1462;-71
2021/12/14 00:41:00;;;;;;;356.52;95.10;;;;;;;3.16;99.09;100084.78;341291;29;1460;-71
2021/12/14 00:41:17;;;;;;;359.45;99.30;;;;;;;3.20;99.07;100089.09;340115;29;949;-71
2021/12/14 00:41:30;;;;;;;358.52;99.25;;;;;;;3.23;98.89;100083.91;338539;29;1480;-71
2021/12/14 00:41:42;;;;;;;356.90;98.38;;;;;;;3.21;99.02;100093.41;341407;29;940;-71
2021/12/14 00:41:52;;;;;;;356.90;97.68;;;;;;;3.20;99.20;100081.34;341496;29;1000;-71
2021/12/14 00:42:04;;;;;;;357.20;98.72;;;;;;;3.22;98.92;100100.28;341143;29;1512;-71
2021/12/14 00:42:14;;;;;;;358.08;99.57;;;;;;;3.22;98.62;100088.22;339925;29;1213;-71
2021/12/14 00:42:25;;;;;;;359.23;100.00;;;;;;;3.22;99.12;100088.22;339994;29;1498;-71
2021/12/14 00:42:35;;;;;;;357.03;96.87;;;;;;;3.22;98.97;100088.22;341511;28;1617;-71
2021/12/14 00:42:45;;;;;;;356.55;96.65;;;;;;;3.22;98.97;100082.19;341361;29;1542;-71
2021/12/14 00:42:57;;;;;;;356.10;96.50;;;;;;;3.23;98.87;100089.09;341323;28;1264;-71
2021/12/14 00:43:07;;;;;;;358.48;99.47;;;;;;;3.22;99.15;100084.78;342508;28;1509;-71
2021/12/14 00:43:18;;;;;;;358.83;99.90;;;;;;;3.18;98.70;100085.66;342682;28;1619;-71
2021/12/14 00:43:28;;;;;;;359.30;100.15;;;;;;;3.17;98.81;100081.34;342361;28;1369;-71
2021/12/14 00:43:39;;;;;;;357.70;97.83;;;;;;;3.16;98.86;100093.41;341295;29;855;-71
2021/12/14 00:43:49;;;;;;;358.25;98.35;;;;;;;3.17;99.02;100083.94;343957;28;1498;-71
2021/12/14 00:44:00;;;;;;;358.27;99.83;;;;;;;3.17;98.99;100094.28;342568;28;1455;-71
2021/12/14 00:44:10;;;;;;;358.27;100.30;;;;;;;3.18;98.74;100093.41;342887;28;1223;-71
2021/12/14 00:44:21;;;;;;;357.20;100.18;;;;;;;3.17;99.21;100091.69;342771;28;1481;-71
2021/12/14 00:44:33;;;;;;;357.80;99.73;;;;;;;3.16;98.79;100092.53;342636;28;1380;-71
2021/12/14 00:44:43;;;;;;;356.98;98.55;;;;;;;3.18;98.88;100085.66;343685;28;1827;-71
2021/12/14 00:44:54;;;;;;;356.35;97.82;;;;;;;3.17;98.65;100089.97;342689;28;1714;-71
2021/12/14 00:45:04;;;;;;;356.17;97.53;;;;;;;3.17;98.86;100078.75;342200;28;1473;-71
2021/12/14 00:45:15;;;;;;;357.15;98.32;;;;;;;3.16;98.90;100088.25;338566;29;1778;-71
2021/12/14 00:45:27;;;;;;;357.17;98.72;;;;;;;3.16;98.87;100087.38;339153;29;973;-71
2021/12/14 00:45:39;;;;;;;356.95;98.07;;;;;;;3.14;98.96;100089.09;341274;29;1292;-71
2021/12/14 00:45:50;;;;;;;357.33;97.25;;;;;;;3.14;98.81;100083.94;342532;28;1511;-71
2021/12/14 00:46:00;;;;;;;357.08;98.43;;;;;;;3.15;98.96;100096.00;338494;29;1365;-71
2021/12/14 00:46:12;;;;;;;357.15;100.18;;;;;;;3.14;98.49;100092.56;341297;29;1201;-71
2021/12/14 00:46:23;;;;;;;356.63;98.80;;;;;;;3.16;99.17;100095.13;341447;29;1320;-71
2021/12/14 00:46:35;;;;;;;355.93;97.17;;;;;;;3.18;99.12;100086.50;337858;29;1524;-71
2021/12/14 00:46:45;;;;;;;355.95;97.80;;;;;;;3.19;98.91;100093.41;338910;29;1532;-71
2021/12/14 00:46:56;;;;;;;355.43;98.00;;;;;;;3.20;98.87;100089.09;341394;29;817;-71
2021/12/14 00:47:06;;;;;;;356.30;98.57;;;;;;;3.19;98.54;100087.38;343715;28;1448;-71
2021/12/14 00:47:16;;;;;;;355.45;96.50;;;;;;;3.21;98.80;100096.84;343683;28;1561;-71
2021/12/14 00:47:27;;;;;;;355.97;96.33;;;;;;;3.21;98.49;100091.66;341391;29;980;-71
2021/12/14 00:47:38;;;;;;;355.00;95.88;;;;;;;3.19;98.92;100088.22;342608;28;2474;-71
2021/12/14 00:47:48;;;;;;;355.33;96.43;;;;;;;3.20;98.35;100099.44;345289;28;1430;-71
2021/12/14 00:47:58;;;;;;;354.93;96.93;;;;;;;3.21;98.34;100088.22;342524;28;1432;-71
2021/12/14 00:48:09;;;;;;;353.60;95.75;;;;;;;3.18;98.58;100085.66;341377;28;1577;-71
2021/12/14 00:48:20;;;;;;;352.33;94.37;;;;;;;3.17;98.38;100089.09;341685;28;1084;-71
2021/12/14 00:48:30;;;;;;;354.15;95.13;;;;;;;3.16;98.46;100088.25;341109;28;1416;-71
2021/12/14 00:48:41;;;;;;;357.27;97.10;;;;;;;3.17;97.98;100095.13;341321;28;1535;-71
2021/12/14 00:48:51;;;;;;;358.60;100.60;;;;;;;3.15;98.17;100093.41;342645;28;1598;-71
2021/12/14 00:49:04;;;;;;;358.48;101.00;;;;;;;3.16;98.45;100092.53;339876;28;1385;-71
2021/12/14 00:49:15;;;;;;;358.50;101.53;;;;;;;3.14;98.49;100089.09;339962;29;1381;-71
2021/12/14 00:49:25;;;;;;;358.80;101.75;;;;;;;3.15;98.42;100085.66;338756;29;826;-71
2021/12/14 00:49:36;;;;;;;358.83;103.30;;;;;;;3.15;98.43;100085.66;339700;29;1519;-71
2021/12/14 00:49:46;;;;;;;358.73;101.73;;;;;;;3.13;98.95;100097.72;339549;29;2007;-71
2021/12/14 00:49:57;;;;;;;359.15;101.10;;;;;;;3.12;98.44;100098.59;339875;29;1213;-71
2021/12/14 00:50:08;;;;;;;360.08;99.45;;;;;;;3.10;98.55;100089.97;340029;29;1543;-71
2021/12/14 00:50:19;;;;;;;360.25;100.60;;;;;;;3.11;98.59;100091.69;341268;28;1099;-71
2021/12/14 00:50:30;;;;;;;360.35;101.50;;;;;;;3.10;98.80;100093.44;345132;28;1573;-71
2021/12/14 00:50:43;;;;;;;359.48;100.72;;;;;;;3.13;98.92;100096.00;342055;28;1277;-72
2021/12/14 00:50:55;;;;;;;359.35;100.22;;;;;;;3.14;98.52;100092.56;341267;28;1197;-72
2021/12/14 00:51:06;;;;;;;358.23;98.57;;;;;;;3.14;98.86;100089.09;341281;29;1559;-72
2021/12/14 00:51:18;;;;;;;357.70;99.22;;;;;;;3.18;99.09;100088.22;341371;28;1526;-72
2021/12/14 00:51:29;;;;;;;355.42;97.68;;;;;;;3.17;99.13;100096.84;341189;28;1412;-72
2021/12/14 00:51:39;;;;;;;355.37;96.77;;;;;;;3.15;99.02;100091.69;342744;28;901;-72
2021/12/14 00:51:50;;;;;;;355.63;95.90;;;;;;;3.15;98.59;100098.59;343440;28;1476;-72
2021/12/14 00:52:01;;;;;;;356.45;97.35;;;;;;;3.17;98.62;100099.44;342512;28;1491;-72
2021/12/14 00:52:11;;;;;;;356.10;98.20;;;;;;;3.16;98.51;100092.53;341412;29;979;-72
2021/12/14 00:52:22;;;;;;;357.08;99.28;;;;;;;3.17;98.81;100091.69;341108;28;1419;-72
2021/12/14 00:52:32;;;;;;;357.27;97.18;;;;;;;3.17;98.94;100094.28;342322;28;1372;-72
2021/12/14 00:52:43;;;;;;;357.80;96.93;;;;;;;3.15;98.70;100091.69;341293;28;1444;-72
2021/12/14 00:52:54;;;;;;;358.23;96.53;;;;;;;3.15;98.99;100099.44;341422;29;847;-72
2021/12/14 00:53:04;;;;;;;357.67;95.77;;;;;;;3.15;98.73;100090.81;339961;29;1464;-72
2021/12/14 00:53:15;;;;;;;359.10;98.23;;;;;;;3.13;98.43;100092.56;342986;28;1474;-72
2021/12/14 00:53:26;;;;;;;357.33;98.40;;;;;;;3.13;98.67;100092.56;344694;28;842;-71
2021/12/14 00:53:36;;;;;;;358.77;100.63;;;;;;;3.11;98.74;100092.56;343890;28;1574;-71
2021/12/14 00:53:47;;;;;;;357.92;98.82;;;;;;;3.12;98.84;100090.84;343913;28;1436;-71
2021/12/14 00:53:58;;;;;;;358.47;98.33;;;;;;;3.12;98.72;100101.19;340029;29;854;-71
2021/12/14 00:54:12;;;;;;;357.55;97.47;;;;;;;3.12;98.64;100090.84;339801;29;1224;-71
2021/12/14 00:54:22;;;;;;;358.38;99.18;;;;;;;3.10;98.78;100092.56;340025;29;1443;-71
2021/12/14 00:54:33;;;;;;;357.40;97.80;;;;;;;3.11;98.85;100094.28;344629;28;1835;-71
2021/12/14 00:54:43;;;;;;;356.50;98.50;;;;;;;3.08;98.92;100094.28;343925;28;1464;-71
2021/12/14 00:54:53;;;;;;;356.83;98.27;;;;;;;3.09;98.50;100096.00;341390;29;934;-71
2021/12/14 00:55:06;;;;;;;358.10;100.05;;;;;;;3.10;98.74;100097.75;341141;28;1373;-71
2021/12/14 00:55:23;;;;;;;359.42;100.03;;;;;;;3.09;98.99;100093.44;338503;29;1093;-71
2021/12/14 00:55:36;;;;;;;356.75;96.80;;;;;;;3.07;98.79;100090.84;339686;29;1483;-71
2021/12/14 00:55:48;;;;;;;354.13;93.90;;;;;;;3.10;99.02;100098.59;343079;28;1376;-71
2021/12/14 00:56:00;;;;;;;355.73;95.68;;;;;;;3.11;98.85;100089.13;343593;28;1502;-71
2021/12/14 00:56:12;;;;;;;354.83;94.53;;;;;;;3.09;98.79;100088.25;341462;29;988;-71
2021/12/14 00:56:22;;;;;;;354.52;94.07;;;;;;;3.05;98.78;100089.13;341254;29;1571;-71
2021/12/14 00:56:33;;;;;;;354.02;95.53;;;;;;;3.03;98.27;100090.88;341157;28;1436;-71
2021/12/14 00:56:44;;;;;;;356.10;99.10;;;;;;;3.02;98.47;100091.75;338827;29;1417;-71
2021/12/14 00:56:55;;;;;;;355.25;97.88;;;;;;;3.03;98.80;100096.06;341491;29;932;-71
2021/12/14 00:57:06;;;;;;;355.00;96.30;;;;;;;2.99;98.86;100088.31;340104;28;1432;-71
2021/12/14 00:57:16;;;;;;;355.25;94.82;;;;;;;3.00;99.04;100087.44;342577;28;1500;-71
2021/12/14 00:57:27;;;;;;;354.40;94.40;;;;;;;3.02;98.78;100095.19;342593;28;1225;-71
2021/12/14 00:57:37;;;;;;;356.08;96.40;;;;;;;2.99;98.44;100093.47;339953;29;1555;-71
2021/12/14 00:57:48;;;;;;;355.63;98.00;;;;;;;3.04;98.81;100092.56;340653;29;1468;-71
2021/12/14 00:57:59;;;;;;;355.52;97.82;;;;;;;3.04;98.83;100092.56;340894;28;2004;-71
2021/12/14 00:58:09;;;;;;;354.37;96.70;;;;;;;3.04;98.49;100090.84;340153;29;1581;-71
2021/12/14 00:58:20;;;;;;;354.35;95.53;;;;;;;3.04;98.80;100092.56;341223;29;1193;-71
2021/12/14 00:58:30;;;;;;;352.67;93.80;;;;;;;3.04;98.56;100093.44;339572;29;1511;-71
2021/12/14 00:58:40;;;;;;;351.73;92.05;;;;;;;3.04;98.72;100088.28;341368;28;1237;-71
2021/12/14 00:58:51;;;;;;;350.37;90.60;;;;;;;3.06;98.52;100093.44;341058;28;1303;-71
2021/12/14 00:59:03;;;;;;;352.65;92.22;;;;;;;3.06;98.80;100096.88;343825;28;1534;-71
2021/12/14 00:59:14;;;;;;;354.08;94.53;;;;;;;3.07;98.49;100092.56;341512;28;1426;-71
2021/12/14 00:59:24;;;;;;;356.08;97.20;;;;;;;3.06;98.29;100090.84;341720;28;1807;-71
2021/12/14 00:59:35;;;;;;;359.30;99.40;;;;;;;3.06;98.92;100096.88;340731;28;1428;-71
2021/12/14 00:59:45;;;;;;;358.55;98.40;;;;;;;3.06;98.44;100091.72;338262;29;1564;-71
2021/12/14 00:59:56;;;;;;;356.47;95.87;;;;;;;3.05;99.13;100095.16;338791;29;811;-71
2021/12/14 01:00:08;;;;;;;353.73;94.77;;;;;;;3.04;98.67;100090.84;338477;29;1596;-71
2021/12/14 01:00:20;;;;;;;354.30;95.03;;;;;;;3.00;98.53;100092.63;341785;28;1091;-71
2021/12/14 01:00:33;;;;;;;355.00;95.72;;;;;;;3.02;98.67;100094.34;340886;29;1611;-71
2021/12/14 01:00:52;;;;;;;356.13;96.57;;;;;;;3.03;99.08;100096.06;341048;29;1493;-71
2021/12/14 01:01:22;;;;;;;355.95;96.15;;;;;;;2.98;98.59;100089.19;342431;28;1455;-71
2021/12/14 01:02:01;;;;;;;353.25;92.22;;;;;;;3.01;98.73;100096.06;341717;28;1310;-71
2021/12/14 01:02:20;;;;;;;351.70;91.65;;;;;;;3.02;98.63;100094.34;340680;29;1129;-71
2021/12/14 01:02:31;;;;;;;353.77;95.35;;;;;;;2.99;98.58;100096.06;342779;28;1365;-71
2021/12/14 01:02:41;;;;;;;354.33;95.00;;;;;;;2.98;98.92;100094.34;341297;28;1193;-71
2021/12/14 01:02:52;;;;;;;354.52;94.75;;;;;;;2.99;99.09;100096.06;338957;29;1593;-71
2021/12/14 01:03:03;;;;;;;353.93;94.73;;;;;;;2.98;98.79;100099.50;341704;28;1495;-71